sensor_id;sensor_type;location;lat;lon;timestamp;pressure;altitude;pressure_sealevel;temperature;humidity
36630;BME280;36256;42.154;23.002;2024-01-15T00:00:15;96836.84;;;-4.31;99.67
36630;BME280;36256;42.154;23.002;2024-01-15T00:02:43;96830.81;;;-4.40;99.70
36630;BME280;36256;42.154;23.002;2024-01-15T00:05:09;96834.63;;;-4.48;100.00
36630;BME280;36256;42.154;23.002;2024-01-15T00:07:36;96836.19;;;-4.47;100.00
36630;BME280;36256;42.154;23.002;2024-01-15T00:10:03;96833.34;;;-4.54;100.00
36630;BME280;36256;42.154;23.002;2024-01-15T00:12:30;96828.91;;;-4.62;100.00
36630;BME280;36256;42.154;23.002;2024-01-15T00:14:57;96828.22;;;-4.56;99.15
36630;BME280;36256;42.154;23.002;2024-01-15T00:17:24;96832.56;;;-4.55;98.95
36630;BME280;36256;42.154;23.002;2024-01-15T00:19:51;96847.38;;;-4.56;99.46
36630;BME280;36256;42.154;23.002;2024-01-15T00:22:18;96847.13;;;-4.47;98.37
36630;BME280;36256;42.154;23.002;2024-01-15T00:24:45;96847.13;;;-4.47;98.44
36630;BME280;36256;42.154;23.002;2024-01-15T00:27:12;96848.72;;;-4.46;98.82
36630;BME280;36256;42.154;23.002;2024-01-15T00:29:39;96841.34;;;-4.42;98.63
36630;BME280;36256;42.154;23.002;2024-01-15T00:32:05;96846.38;;;-4.48;97.90
36630;BME280;36256;42.154;23.002;2024-01-15T00:34:32;96841.06;;;-4.37;97.65
36630;BME280;36256;42.154;23.002;2024-01-15T00:36:59;96849.63;;;-4.39;98.46
36630;BME280;36256;42.154;23.002;2024-01-15T00:39:26;96847.31;;;-4.37;98.21
36630;BME280;36256;42.154;23.002;2024-01-15T00:41:52;96840.78;;;-4.29;97.12
36630;BME280;36256;42.154;23.002;2024-01-15T00:44:19;96837.34;;;-4.22;96.25
36630;BME280;36256;42.154;23.002;2024-01-15T00:46:46;96835.03;;;-4.20;95.04
36630;BME280;36256;42.154;23.002;2024-01-15T00:49:13;96836.56;;;-4.23;95.86
36630;BME280;36256;42.154;23.002;2024-01-15T00:51:41;96834.44;;;-4.33;95.68
36630;BME280;36256;42.154;23.002;2024-01-15T00:54:07;96825.72;;;-4.42;95.48
36630;BME280;36256;42.154;23.002;2024-01-15T00:56:35;96830.28;;;-4.49;94.60
36630;BME280;36256;42.154;23.002;2024-01-15T00:59:01;96822.06;;;-4.49;94.51
36630;BME280;36256;42.154;23.002;2024-01-15T01:01:28;96824.47;;;-4.48;94.80
36630;BME280;36256;42.154;23.002;2024-01-15T01:03:55;96831.13;;;-4.45;93.19
36630;BME280;36256;42.154;23.002;2024-01-15T01:06:22;96832.34;;;-4.43;92.26
36630;BME280;36256;42.154;23.002;2024-01-15T01:08:49;96835.16;;;-4.39;94.44
36630;BME280;36256;42.154;23.002;2024-01-15T01:11:16;96838.63;;;-4.42;95.21
36630;BME280;36256;42.154;23.002;2024-01-15T01:13:43;96829.97;;;-4.44;94.76
36630;BME280;36256;42.154;23.002;2024-01-15T01:16:09;96827.66;;;-4.42;94.56
36630;BME280;36256;42.154;23.002;2024-01-15T01:18:36;96829.97;;;-4.44;95.25
36630;BME280;36256;42.154;23.002;2024-01-15T01:21:03;96829.22;;;-4.41;94.79
36630;BME280;36256;42.154;23.002;2024-01-15T01:23:30;96823.03;;;-4.38;94.56
36630;BME280;36256;42.154;23.002;2024-01-15T01:25:56;96819.06;;;-4.41;95.95
36630;BME280;36256;42.154;23.002;2024-01-15T01:28:23;96812.88;;;-4.38;100.00
36630;BME280;36256;42.154;23.002;2024-01-15T01:30:50;96825.66;;;-4.45;100.00
36630;BME280;36256;42.154;23.002;2024-01-15T01:33:17;96809.84;;;-4.55;99.92
36630;BME280;36256;42.154;23.002;2024-01-15T01:35:44;96825.31;;;-4.44;99.88
36630;BME280;36256;42.154;23.002;2024-01-15T01:38:12;96819.88;;;-4.40;99.62
36630;BME280;36256;42.154;23.002;2024-01-15T01:40:39;96813.19;;;-4.43;99.06
36630;BME280;36256;42.154;23.002;2024-01-15T01:43:06;96828.31;;;-4.52;99.28
36630;BME280;36256;42.154;23.002;2024-01-15T01:45:32;96800.34;;;-4.65;98.34
36630;BME280;36256;42.154;23.002;2024-01-15T01:48:00;96817.09;;;-4.66;98.44
36630;BME280;36256;42.154;23.002;2024-01-15T01:50:29;96817.28;;;-4.56;98.82
36630;BME280;36256;42.154;23.002;2024-01-15T01:52:58;96821.97;;;-4.56;99.45
36630;BME280;36256;42.154;23.002;2024-01-15T01:55:27;96820.44;;;-4.54;99.70
36630;BME280;36256;42.154;23.002;2024-01-15T01:57:55;96813.56;;;-4.44;99.71
36630;BME280;36256;42.154;23.002;2024-01-15T02:00:22;96794.50;;;-4.37;98.96
36630;BME280;36256;42.154;23.002;2024-01-15T02:02:50;96774.56;;;-4.34;98.16
36630;BME280;36256;42.154;23.002;2024-01-15T02:05:18;96773.31;;;-4.40;98.15
36630;BME280;36256;42.154;23.002;2024-01-15T02:07:45;96769.94;;;-4.30;98.55
36630;BME280;36256;42.154;23.002;2024-01-15T02:10:13;96774.72;;;-4.24;98.20
36630;BME280;36256;42.154;23.002;2024-01-15T02:12:42;96782.13;;;-4.24;97.04
36630;BME280;36256;42.154;23.002;2024-01-15T02:15:09;96758.66;;;-4.25;96.24
36630;BME280;36256;42.154;23.002;2024-01-15T02:17:56;96737.81;;;-4.33;96.41
36630;BME280;36256;42.154;23.002;2024-01-15T02:20:24;96756.78;;;-4.18;96.55
36630;BME280;36256;42.154;23.002;2024-01-15T02:22:51;96760.34;;;-4.17;96.91
36630;BME280;36256;42.154;23.002;2024-01-15T02:25:18;96766.19;;;-4.19;97.20
36630;BME280;36256;42.154;23.002;2024-01-15T02:27:46;96759.13;;;-4.20;95.80
36630;BME280;36256;42.154;23.002;2024-01-15T02:30:13;96732.84;;;-4.24;97.30
36630;BME280;36256;42.154;23.002;2024-01-15T02:32:40;96745.69;;;-4.28;98.52
36630;BME280;36256;42.154;23.002;2024-01-15T02:35:07;96755.44;;;-4.31;98.91
36630;BME280;36256;42.154;23.002;2024-01-15T02:37:35;96736.22;;;-4.34;98.19
36630;BME280;36256;42.154;23.002;2024-01-15T02:40:02;96728.22;;;-4.50;99.67
36630;BME280;36256;42.154;23.002;2024-01-15T02:42:33;96725.91;;;-4.48;100.00
36630;BME280;36256;42.154;23.002;2024-01-15T02:45:00;96713.31;;;-4.52;100.00
36630;BME280;36256;42.154;23.002;2024-01-15T02:47:27;96700.88;;;-4.46;99.97
36630;BME280;36256;42.154;23.002;2024-01-15T02:49:55;96717.19;;;-4.53;99.40
36630;BME280;36256;42.154;23.002;2024-01-15T02:52:22;96702.25;;;-4.86;99.28
36630;BME280;36256;42.154;23.002;2024-01-15T02:55:00;96707.28;;;-4.91;99.82
36630;BME280;36256;42.154;23.002;2024-01-15T02:57:27;96702.69;;;-4.84;99.10
36630;BME280;36256;42.154;23.002;2024-01-15T02:59:54;96699.31;;;-5.00;98.89
36630;BME280;36256;42.154;23.002;2024-01-15T03:02:20;96709.59;;;-4.93;99.47
36630;BME280;36256;42.154;23.002;2024-01-15T03:04:50;96710.81;;;-4.91;99.63
36630;BME280;36256;42.154;23.002;2024-01-15T03:07:18;96701.38;;;-4.93;100.00
36630;BME280;36256;42.154;23.002;2024-01-15T03:09:44;96709.69;;;-4.86;100.00
36630;BME280;36256;42.154;23.002;2024-01-15T03:12:11;96698.38;;;-4.85;100.00
36630;BME280;36256;42.154;23.002;2024-01-15T03:14:38;96701.13;;;-4.85;99.07
36630;BME280;36256;42.154;23.002;2024-01-15T03:17:05;96691.72;;;-4.84;99.01
36630;BME280;36256;42.154;23.002;2024-01-15T03:19:35;96704.28;;;-4.83;98.61
36630;BME280;36256;42.154;23.002;2024-01-15T03:22:02;96698.06;;;-4.80;99.40
36630;BME280;36256;42.154;23.002;2024-01-15T03:24:31;96685.66;;;-4.73;98.41
36630;BME280;36256;42.154;23.002;2024-01-15T03:26:58;96687.97;;;-4.75;96.00
36630;BME280;36256;42.154;23.002;2024-01-15T03:29:25;96682.94;;;-4.70;95.42
36630;BME280;36256;42.154;23.002;2024-01-15T03:31:53;96686.91;;;-4.67;94.37
36630;BME280;36256;42.154;23.002;2024-01-15T03:34:19;96691.16;;;-4.70;94.45
36630;BME280;36256;42.154;23.002;2024-01-15T03:36:47;96694.59;;;-4.77;95.28
36630;BME280;36256;42.154;23.002;2024-01-15T03:39:14;96680.31;;;-4.89;96.79
36630;BME280;36256;42.154;23.002;2024-01-15T03:41:41;96696.47;;;-4.81;96.95
36630;BME280;36256;42.154;23.002;2024-01-15T03:44:08;96705.06;;;-4.82;96.83
36630;BME280;36256;42.154;23.002;2024-01-15T03:46:34;96682.91;;;-5.00;98.07
36630;BME280;36256;42.154;23.002;2024-01-15T03:49:01;96688.38;;;-5.00;98.48
36630;BME280;36256;42.154;23.002;2024-01-15T03:51:28;96691.88;;;-5.03;97.82
36630;BME280;36256;42.154;23.002;2024-01-15T03:53:55;96680.00;;;-5.10;97.95
36630;BME280;36256;42.154;23.002;2024-01-15T03:56:22;96676.28;;;-5.25;98.05
36630;BME280;36256;42.154;23.002;2024-01-15T03:58:48;96677.13;;;-5.21;98.78
36630;BME280;36256;42.154;23.002;2024-01-15T04:01:15;96683.44;;;-5.17;99.17
36630;BME280;36256;42.154;23.002;2024-01-15T04:03:42;96684.25;;;-5.13;97.95
36630;BME280;36256;42.154;23.002;2024-01-15T04:06:09;96675.75;;;-5.08;97.16
36630;BME280;36256;42.154;23.002;2024-01-15T04:08:36;96671.09;;;-5.07;97.26
36630;BME280;36256;42.154;23.002;2024-01-15T04:11:03;96668.69;;;-5.09;97.77
36630;BME280;36256;42.154;23.002;2024-01-15T04:13:33;96669.41;;;-5.15;98.89
36630;BME280;36256;42.154;23.002;2024-01-15T04:16:00;96676.28;;;-5.25;99.83
36630;BME280;36256;42.154;23.002;2024-01-15T04:18:27;96682.53;;;-5.24;100.00
36630;BME280;36256;42.154;23.002;2024-01-15T04:20:54;96684.22;;;-5.16;100.00
36630;BME280;36256;42.154;23.002;2024-01-15T04:23:21;96677.88;;;-5.24;100.00
36630;BME280;36256;42.154;23.002;2024-01-15T04:25:47;96683.34;;;-5.24;99.76
36630;BME280;36256;42.154;23.002;2024-01-15T04:28:14;96679.00;;;-5.25;100.00
36630;BME280;36256;42.154;23.002;2024-01-15T04:30:41;96680.69;;;-5.17;100.00
36630;BME280;36256;42.154;23.002;2024-01-15T04:33:08;96675.75;;;-5.08;97.70
36630;BME280;36256;42.154;23.002;2024-01-15T04:35:35;96665.34;;;-4.99;96.54
36630;BME280;36256;42.154;23.002;2024-01-15T04:38:02;96668.84;;;-4.98;96.24
36630;BME280;36256;42.154;23.002;2024-01-15T04:40:29;96669.22;;;-5.00;95.59
36630;BME280;36256;42.154;23.002;2024-01-15T04:42:55;96668.25;;;-4.88;95.65
36630;BME280;36256;42.154;23.002;2024-01-15T04:45:22;96660.50;;;-4.83;95.47
36630;BME280;36256;42.154;23.002;2024-01-15T04:47:55;96666.41;;;-4.77;95.57
36630;BME280;36256;42.154;23.002;2024-01-15T04:50:25;96651.19;;;-4.78;96.07
36630;BME280;36256;42.154;23.002;2024-01-15T04:52:51;96648.06;;;-4.77;94.76
36630;BME280;36256;42.154;23.002;2024-01-15T04:55:22;96646.56;;;-4.70;93.24
36630;BME280;36256;42.154;23.002;2024-01-15T04:57:48;96640.38;;;-4.67;96.24
36630;BME280;36256;42.154;23.002;2024-01-15T05:00:16;96647.81;;;-4.64;100.00
36630;BME280;36256;42.154;23.002;2024-01-15T05:02:43;96655.97;;;-4.71;99.32
36630;BME280;36256;42.154;23.002;2024-01-15T05:05:10;96659.03;;;-4.73;99.24
36630;BME280;36256;42.154;23.002;2024-01-15T05:07:37;96655.53;;;-4.73;98.33
36630;BME280;36256;42.154;23.002;2024-01-15T05:10:04;96649.38;;;-4.67;97.27
36630;BME280;36256;42.154;23.002;2024-01-15T05:12:31;96650.91;;;-4.69;96.87
36630;BME280;36256;42.154;23.002;2024-01-15T05:14:58;96644.91;;;-4.79;97.29
36630;BME280;36256;42.154;23.002;2024-01-15T05:17:25;96634.78;;;-4.74;98.05
36630;BME280;36256;42.154;23.002;2024-01-15T05:19:51;96626.94;;;-4.80;97.71
36630;BME280;36256;42.154;23.002;2024-01-15T05:22:18;96640.91;;;-4.85;97.99
36630;BME280;36256;42.154;23.002;2024-01-15T05:24:45;96637.75;;;-4.87;98.06
36630;BME280;36256;42.154;23.002;2024-01-15T05:27:12;96636.19;;;-4.88;98.33
36630;BME280;36256;42.154;23.002;2024-01-15T05:29:38;96645.88;;;-4.94;98.67
36630;BME280;36256;42.154;23.002;2024-01-15T05:32:05;96629.00;;;-4.99;100.00
36630;BME280;36256;42.154;23.002;2024-01-15T05:34:32;96623.25;;;-4.91;100.00
36630;BME280;36256;42.154;23.002;2024-01-15T05:36:59;96622.88;;;-4.89;100.00
36630;BME280;36256;42.154;23.002;2024-01-15T05:39:26;96623.66;;;-4.89;100.00
36630;BME280;36256;42.154;23.002;2024-01-15T05:41:53;96615.19;;;-4.80;100.00
36630;BME280;36256;42.154;23.002;2024-01-15T05:44:19;96617.53;;;-4.79;99.16
36630;BME280;36256;42.154;23.002;2024-01-15T05:46:46;96614.81;;;-4.79;98.32
36630;BME280;36256;42.154;23.002;2024-01-15T05:49:13;96615.22;;;-4.77;98.09
36630;BME280;36256;42.154;23.002;2024-01-15T05:51:40;96610.38;;;-4.90;98.51
36630;BME280;36256;42.154;23.002;2024-01-15T05:54:07;96598.56;;;-4.94;99.07
36630;BME280;36256;42.154;23.002;2024-01-15T05:56:34;96607.06;;;-5.03;98.97
36630;BME280;36256;42.154;23.002;2024-01-15T05:59:01;96612.31;;;-5.17;100.00
36630;BME280;36256;42.154;23.002;2024-01-15T06:01:28;96609.38;;;-5.31;100.00
36630;BME280;36256;42.154;23.002;2024-01-15T06:03:55;96607.66;;;-5.16;100.00
36630;BME280;36256;42.154;23.002;2024-01-15T06:06:22;96601.59;;;-5.03;100.00
36630;BME280;36256;42.154;23.002;2024-01-15T06:08:52;96603.56;;;-5.00;100.00
36630;BME280;36256;42.154;23.002;2024-01-15T06:11:19;96598.63;;;-4.91;100.00
36630;BME280;36256;42.154;23.002;2024-01-15T06:13:45;96590.84;;;-4.89;100.00
36630;BME280;36256;42.154;23.002;2024-01-15T06:16:15;96592.53;;;-4.77;99.58
36630;BME280;36256;42.154;23.002;2024-01-15T06:18:46;96603.63;;;-4.66;99.21
36630;BME280;36256;42.154;23.002;2024-01-15T06:21:13;96598.25;;;-4.59;98.71
36630;BME280;36256;42.154;23.002;2024-01-15T06:23:41;96591.69;;;-4.51;98.60
36630;BME280;36256;42.154;23.002;2024-01-15T06:26:07;96588.72;;;-4.39;98.11
36630;BME280;36256;42.154;23.002;2024-01-15T06:28:34;96602.88;;;-4.30;97.81
36630;BME280;36256;42.154;23.002;2024-01-15T06:31:01;96604.88;;;-4.27;98.21
36630;BME280;36256;42.154;23.002;2024-01-15T06:33:27;96613.91;;;-4.23;98.40
36630;BME280;36256;42.154;23.002;2024-01-15T06:35:54;96616.75;;;-4.16;99.48
36630;BME280;36256;42.154;23.002;2024-01-15T06:38:22;96608.13;;;-4.15;100.00
36630;BME280;36256;42.154;23.002;2024-01-15T06:40:49;96597.91;;;-4.21;100.00
36630;BME280;36256;42.154;23.002;2024-01-15T06:43:19;96603.69;;;-4.26;100.00
36630;BME280;36256;42.154;23.002;2024-01-15T06:45:46;96594.75;;;-4.23;100.00
36630;BME280;36256;42.154;23.002;2024-01-15T06:48:12;96597.28;;;-4.04;100.00
36630;BME280;36256;42.154;23.002;2024-01-15T06:50:43;96613.81;;;-3.97;100.00
36630;BME280;36256;42.154;23.002;2024-01-15T06:53:10;96605.13;;;-4.03;100.00
36630;BME280;36256;42.154;23.002;2024-01-15T06:55:38;96600.13;;;-3.97;100.00
36630;BME280;36256;42.154;23.002;2024-01-15T06:58:08;96613.88;;;-3.90;100.00
36630;BME280;36256;42.154;23.002;2024-01-15T07:00:35;96604.94;;;-3.80;100.00
36630;BME280;36256;42.154;23.002;2024-01-15T07:03:02;96593.25;;;-3.77;100.00
36630;BME280;36256;42.154;23.002;2024-01-15T07:05:29;96586.66;;;-3.69;100.00
36630;BME280;36256;42.154;23.002;2024-01-15T07:07:57;96598.59;;;-3.47;100.00
36630;BME280;36256;42.154;23.002;2024-01-15T07:10:24;96598.59;;;-3.44;100.00
36630;BME280;36256;42.154;23.002;2024-01-15T07:12:51;96608.69;;;-3.55;99.65
36630;BME280;36256;42.154;23.002;2024-01-15T07:15:18;96614.88;;;-3.65;99.22
36630;BME280;36256;42.154;23.002;2024-01-15T07:17:44;96611.72;;;-3.70;99.69
36630;BME280;36256;42.154;23.002;2024-01-15T07:20:11;96601.25;;;-3.58;99.43
36630;BME280;36256;42.154;23.002;2024-01-15T07:22:39;96599.38;;;-3.47;100.00
36630;BME280;36256;42.154;23.002;2024-01-15T07:25:05;96594.28;;;-3.45;100.00
36630;BME280;36256;42.154;23.002;2024-01-15T07:27:33;96593.13;;;-3.44;100.00
36630;BME280;36256;42.154;23.002;2024-01-15T07:30:06;96589.22;;;-3.43;100.00
36630;BME280;36256;42.154;23.002;2024-01-15T07:32:34;96595.91;;;-3.37;100.00
36630;BME280;36256;42.154;23.002;2024-01-15T07:35:00;96585.75;;;-3.33;100.00
36630;BME280;36256;42.154;23.002;2024-01-15T07:37:27;96593.72;;;-3.13;100.00
36630;BME280;36256;42.154;23.002;2024-01-15T07:39:54;96591.00;;;-3.13;100.00
36630;BME280;36256;42.154;23.002;2024-01-15T07:42:21;96599.69;;;-3.04;100.00
36630;BME280;36256;42.154;23.002;2024-01-15T07:44:48;96601.69;;;-2.94;100.00
36630;BME280;36256;42.154;23.002;2024-01-15T07:47:15;96588.41;;;-2.85;100.00
36630;BME280;36256;42.154;23.002;2024-01-15T07:49:42;96596.66;;;-2.78;100.00
36630;BME280;36256;42.154;23.002;2024-01-15T07:52:09;96584.94;;;-2.79;100.00
36630;BME280;36256;42.154;23.002;2024-01-15T07:54:36;96599.50;;;-2.61;100.00
36630;BME280;36256;42.154;23.002;2024-01-15T07:57:03;96608.94;;;-2.58;100.00
36630;BME280;36256;42.154;23.002;2024-01-15T07:59:30;96592.88;;;-2.56;100.00
36630;BME280;36256;42.154;23.002;2024-01-15T08:01:58;96616.44;;;-2.45;99.74
36630;BME280;36256;42.154;23.002;2024-01-15T08:04:25;96608.66;;;-2.39;99.20
36630;BME280;36256;42.154;23.002;2024-01-15T08:06:52;96611.78;;;-2.37;98.74
36630;BME280;36256;42.154;23.002;2024-01-15T08:09:19;96612.56;;;-2.37;98.76
36630;BME280;36256;42.154;23.002;2024-01-15T08:11:46;96617.28;;;-2.30;99.11
36630;BME280;36256;42.154;23.002;2024-01-15T08:14:12;96603.97;;;-2.21;99.40
36630;BME280;36256;42.154;23.002;2024-01-15T08:16:40;96592.22;;;-2.18;100.00
36630;BME280;36256;42.154;23.002;2024-01-15T08:19:06;96598.06;;;-2.33;100.00
36630;BME280;36256;42.154;23.002;2024-01-15T08:21:33;96605.94;;;-2.25;100.00
36630;BME280;36256;42.154;23.002;2024-01-15T08:24:02;96600.84;;;-2.19;100.00
36630;BME280;36256;42.154;23.002;2024-01-15T08:26:29;96598.50;;;-2.21;100.00
36630;BME280;36256;42.154;23.002;2024-01-15T08:28:56;96602.47;;;-2.11;100.00
36630;BME280;36256;42.154;23.002;2024-01-15T08:31:26;96596.56;;;-2.06;100.00
36630;BME280;36256;42.154;23.002;2024-01-15T08:33:53;96588.34;;;-1.96;100.00
36630;BME280;36256;42.154;23.002;2024-01-15T08:36:21;96592.28;;;-1.79;100.00
36630;BME280;36256;42.154;23.002;2024-01-15T08:38:48;96586.81;;;-1.65;100.00
36630;BME280;36256;42.154;23.002;2024-01-15T08:41:14;96593.91;;;-1.46;98.19
36630;BME280;36256;42.154;23.002;2024-01-15T08:43:41;96562.44;;;-1.67;99.28
36630;BME280;36256;42.154;23.002;2024-01-15T08:46:08;96579.75;;;-1.52;99.73
36630;BME280;36256;42.154;23.002;2024-01-15T08:48:35;96570.31;;;-1.65;100.00
36630;BME280;36256;42.154;23.002;2024-01-15T08:51:03;96571.88;;;-1.68;100.00
36630;BME280;36256;42.154;23.002;2024-01-15T08:53:30;96578.19;;;-1.56;100.00
36630;BME280;36256;42.154;23.002;2024-01-15T08:55:57;96576.63;;;-1.50;99.55
36630;BME280;36256;42.154;23.002;2024-01-15T08:58:23;96575.81;;;-1.40;98.11
36630;BME280;36256;42.154;23.002;2024-01-15T09:00:51;96583.69;;;-1.21;98.41
36630;BME280;36256;42.154;23.002;2024-01-15T09:03:18;96585.22;;;-1.20;97.78
36630;BME280;36256;42.154;23.002;2024-01-15T09:05:44;96573.84;;;-1.29;98.49
36630;BME280;36256;42.154;23.002;2024-01-15T09:08:11;96562.47;;;-1.38;98.56
36630;BME280;36256;42.154;23.002;2024-01-15T09:10:38;96559.31;;;-1.37;100.00
36630;BME280;36256;42.154;23.002;2024-01-15T09:13:05;96555.78;;;-1.27;100.00
36630;BME280;36256;42.154;23.002;2024-01-15T09:15:32;96547.50;;;-1.20;100.00
36630;BME280;36256;42.154;23.002;2024-01-15T09:17:59;96540.81;;;-1.08;100.00
36630;BME280;36256;42.154;23.002;2024-01-15T09:20:32;96518.38;;;-1.10;99.89
36630;BME280;36256;42.154;23.002;2024-01-15T09:22:58;96516.03;;;-1.08;100.00
36630;BME280;36256;42.154;23.002;2024-01-15T09:25:25;96531.72;;;-1.05;100.00
36630;BME280;36256;42.154;23.002;2024-01-15T09:27:52;96517.97;;;-1.02;100.00
36630;BME280;36256;42.154;23.002;2024-01-15T09:30:19;96505.72;;;-0.83;100.00
36630;BME280;36256;42.154;23.002;2024-01-15T09:32:46;96505.63;;;-0.65;100.00
36630;BME280;36256;42.154;23.002;2024-01-15T09:35:13;96500.84;;;-0.47;99.72
36630;BME280;36256;42.154;23.002;2024-01-15T09:37:40;96488.97;;;-0.37;99.09
36630;BME280;36256;42.154;23.002;2024-01-15T09:40:14;96498.41;;;-0.35;97.61
36630;BME280;36256;42.154;23.002;2024-01-15T09:42:43;96490.44;;;-0.22;98.59
36630;BME280;36256;42.154;23.002;2024-01-15T09:45:10;96481.75;;;-0.14;95.75
36630;BME280;36256;42.154;23.002;2024-01-15T09:47:38;96477.78;;;-0.13;94.48
36630;BME280;36256;42.154;23.002;2024-01-15T09:50:10;96472.25;;;-0.13;94.22
36630;BME280;36256;42.154;23.002;2024-01-15T09:52:38;96463.44;;;0.07;94.50
36630;BME280;36256;42.154;23.002;2024-01-15T09:55:05;96461.84;;;0.13;93.52
36630;BME280;36256;42.154;23.002;2024-01-15T09:57:32;96446.06;;;0.13;92.83
36630;BME280;36256;42.154;23.002;2024-01-15T10:00:01;96435.81;;;0.14;92.72
36630;BME280;36256;42.154;23.002;2024-01-15T10:02:30;96447.56;;;0.25;92.54
36630;BME280;36256;42.154;23.002;2024-01-15T10:04:58;96436.00;;;0.37;93.12
36630;BME280;36256;42.154;23.002;2024-01-15T10:07:25;96427.75;;;0.37;92.46
36630;BME280;36256;42.154;23.002;2024-01-15T10:09:52;96404.75;;;0.47;92.23
36630;BME280;36256;42.154;23.002;2024-01-15T10:12:21;96404.44;;;0.41;91.72
36630;BME280;36256;42.154;23.002;2024-01-15T10:14:50;96376.41;;;0.43;92.09
36630;BME280;36256;42.154;23.002;2024-01-15T10:17:17;96378.81;;;0.41;92.79
36630;BME280;36256;42.154;23.002;2024-01-15T10:19:47;96389.22;;;0.63;93.97
36630;BME280;36256;42.154;23.002;2024-01-15T10:22:16;96388.69;;;0.75;92.63
36630;BME280;36256;42.154;23.002;2024-01-15T10:24:45;96370.16;;;0.76;92.42
36630;BME280;36256;42.154;23.002;2024-01-15T10:27:14;96353.75;;;0.62;92.55
36630;BME280;36256;42.154;23.002;2024-01-15T10:29:44;96367.66;;;0.85;93.61
36630;BME280;36256;42.154;23.002;2024-01-15T10:32:11;96358.50;;;0.92;92.77
36630;BME280;36256;42.154;23.002;2024-01-15T10:34:40;96349.44;;;0.91;92.56
36630;BME280;36256;42.154;23.002;2024-01-15T10:37:09;96361.41;;;1.11;93.05
36630;BME280;36256;42.154;23.002;2024-01-15T10:39:38;96337.06;;;1.03;91.82
36630;BME280;36256;42.154;23.002;2024-01-15T10:42:06;96345.50;;;1.19;91.43
36630;BME280;36256;42.154;23.002;2024-01-15T10:44:34;96359.97;;;1.30;90.86
36630;BME280;36256;42.154;23.002;2024-01-15T10:47:02;96348.69;;;1.17;89.97
36630;BME280;36256;42.154;23.002;2024-01-15T10:49:29;96339.38;;;1.08;90.58
36630;BME280;36256;42.154;23.002;2024-01-15T10:52:01;96335.97;;;1.23;90.14
36630;BME280;36256;42.154;23.002;2024-01-15T10:54:29;96333.56;;;1.29;89.86
36630;BME280;36256;42.154;23.002;2024-01-15T10:56:57;96330.00;;;1.28;90.12
36630;BME280;36256;42.154;23.002;2024-01-15T10:59:24;96330.38;;;1.30;89.97
36630;BME280;36256;42.154;23.002;2024-01-15T11:01:52;96326.34;;;1.35;90.48
36630;BME280;36256;42.154;23.002;2024-01-15T11:04:23;96316.84;;;1.36;90.38
36630;BME280;36256;42.154;23.002;2024-01-15T11:06:52;96312.78;;;1.44;90.74
36630;BME280;36256;42.154;23.002;2024-01-15T11:09:23;96293.94;;;1.35;92.31
36630;BME280;36256;42.154;23.002;2024-01-15T11:12:11;96309.75;;;1.62;93.22
36630;BME280;36256;42.154;23.002;2024-01-15T11:14:48;96285.81;;;1.51;94.55
36630;BME280;36256;42.154;23.002;2024-01-15T11:17:16;96285.03;;;1.51;95.83
36630;BME280;36256;42.154;23.002;2024-01-15T11:19:48;96276.31;;;1.52;95.63
36630;BME280;36256;42.154;23.002;2024-01-15T11:25:14;96288.09;;;1.56;93.76
36630;BME280;36256;42.154;23.002;2024-01-15T11:27:43;96277.03;;;1.56;91.86
36630;BME280;36256;42.154;23.002;2024-01-15T11:30:15;96272.19;;;1.64;91.11
36630;BME280;36256;42.154;23.002;2024-01-15T11:32:42;96251.94;;;1.71;90.46
36630;BME280;36256;42.154;23.002;2024-01-15T11:35:10;96269.22;;;1.98;89.67
36630;BME280;36256;42.154;23.002;2024-01-15T11:40:21;96259.25;;;2.23;86.81
36630;BME280;36256;42.154;23.002;2024-01-15T11:42:48;96257.63;;;2.26;86.74
36630;BME280;36256;42.154;23.002;2024-01-15T11:45:18;96254.22;;;2.38;86.55
36630;BME280;36256;42.154;23.002;2024-01-15T11:48:14;96250.19;;;2.43;85.86
36630;BME280;36256;42.154;23.002;2024-01-15T11:50:49;96238.56;;;2.67;85.63
36630;BME280;36256;42.154;23.002;2024-01-15T11:55:51;96225.84;;;3.05;84.46
36630;BME280;36256;42.154;23.002;2024-01-15T11:58:18;96215.31;;;3.16;83.84
36630;BME280;36256;42.154;23.002;2024-01-15T12:00:47;96204.13;;;3.36;82.36
36630;BME280;36256;42.154;23.002;2024-01-15T12:03:16;96203.19;;;3.59;82.03
36630;BME280;36256;42.154;23.002;2024-01-15T12:05:43;96195.34;;;3.70;80.98
36630;BME280;36256;42.154;23.002;2024-01-15T12:08:11;96200.00;;;3.89;80.73
36630;BME280;36256;42.154;23.002;2024-01-15T12:10:41;96179.47;;;4.15;76.70
36630;BME280;36256;42.154;23.002;2024-01-15T12:13:12;96168.63;;;4.33;76.09
36630;BME280;36256;42.154;23.002;2024-01-15T12:15:43;96169.31;;;4.37;73.99
36630;BME280;36256;42.154;23.002;2024-01-15T12:18:16;96169.59;;;4.55;74.00
36630;BME280;36256;42.154;23.002;2024-01-15T12:20:44;96169.06;;;4.86;69.82
36630;BME280;36256;42.154;23.002;2024-01-15T12:23:14;96152.38;;;5.23;66.46
36630;BME280;36256;42.154;23.002;2024-01-15T12:25:41;96142.69;;;5.40;65.72
36630;BME280;36256;42.154;23.002;2024-01-15T12:28:08;96125.03;;;5.56;63.36
36630;BME280;36256;42.154;23.002;2024-01-15T12:30:36;96127.00;;;5.68;63.36
36630;BME280;36256;42.154;23.002;2024-01-15T12:33:05;96120.97;;;5.82;62.34
36630;BME280;36256;42.154;23.002;2024-01-15T12:35:33;96119.25;;;5.97;61.03
36630;BME280;36256;42.154;23.002;2024-01-15T12:38:01;96103.78;;;5.96;61.38
36630;BME280;36256;42.154;23.002;2024-01-15T12:40:31;96106.00;;;6.01;60.14
36630;BME280;36256;42.154;23.002;2024-01-15T12:42:59;96113.50;;;6.13;60.50
36630;BME280;36256;42.154;23.002;2024-01-15T12:45:26;96107.53;;;6.24;59.33
36630;BME280;36256;42.154;23.002;2024-01-15T12:47:53;96110.25;;;6.37;59.01
36630;BME280;36256;42.154;23.002;2024-01-15T12:50:24;96097.69;;;6.32;58.91
36630;BME280;36256;42.154;23.002;2024-01-15T12:52:51;96105.00;;;6.39;58.66
36630;BME280;36256;42.154;23.002;2024-01-15T12:55:17;96084.06;;;6.34;58.52
36630;BME280;36256;42.154;23.002;2024-01-15T12:57:44;96105.31;;;6.41;58.72
36630;BME280;36256;42.154;23.002;2024-01-15T13:00:12;96096.09;;;6.53;57.55